Time;durP1;ratioP1;P1;durP2;ratioP2;P2;SDS_P1;SDS_P2;PMS_P1;PMS_P2;Temp;Humidity;BMP_temperature;BMP_pressure;BME280_temperature;BME280_humidity;BME280_pressure;Samples;Min_cycle;Max_cycle;Signal;HPM_P1;HPM_P2
2024/02/29 00:00:36;;;;;;;41.22;26.02;;;8.20;83.80;;;;;;5074350;28;20191;-68
2024/02/29 00:03:03;;;;;;;46.75;26.10;;;8.20;84.00;;;;;;5074319;28;20194;-68
2024/02/29 00:05:31;;;;;;;44.40;27.10;;;8.30;83.90;;;;;;5073909;28;20218;-68
2024/02/29 00:08:07;;;;;;;43.97;26.08;;;8.30;84.10;;;;;;5074293;28;20219;-68
2024/02/29 00:10:34;;;;;;;47.22;25.50;;;8.30;84.30;;;;;;5083352;28;20177;-68
2024/02/29 00:13:01;;;;;;;47.03;26.35;;;8.30;84.20;;;;;;5094462;28;20196;-68
2024/02/29 00:15:32;;;;;;;47.20;26.38;;;8.30;84.30;;;;;;5094413;28;20211;-68
2024/02/29 00:17:59;;;;;;;43.55;26.67;;;8.30;84.40;;;;;;5094639;28;20185;-68
2024/02/29 00:20:34;;;;;;;40.70;25.63;;;8.30;84.30;;;;;;5094297;28;20193;-68
2024/02/29 00:23:06;;;;;;;46.63;27.65;;;8.40;84.10;;;;;;5094801;28;20263;-68
2024/02/29 00:25:33;;;;;;;48.60;27.02;;;8.40;83.90;;;;;;5082240;28;20198;-68
2024/02/29 00:28:01;;;;;;;49.38;27.65;;;8.40;83.70;;;;;;5078810;28;20735;-68
2024/02/29 00:30:29;;;;;;;45.50;27.95;;;8.40;83.50;;;;;;5094466;28;20599;-68
2024/02/29 00:32:56;;;;;;;47.67;29.45;;;8.40;83.30;;;;;;5094115;28;20666;-68
2024/02/29 00:35:24;;;;;;;49.60;27.52;;;8.40;83.20;;;;;;5094415;28;20275;-68
2024/02/29 00:37:52;;;;;;;48.35;29.40;;;8.40;83.10;;;;;;5081432;28;20655;-68
2024/02/29 00:40:21;;;;;;;46.15;26.95;;;8.40;82.90;;;;;;5074002;28;20550;-68
2024/02/29 00:42:54;;;;;;;43.83;26.83;;;8.30;82.60;;;;;;5073509;28;20700;-68
2024/02/29 00:45:23;;;;;;;45.40;27.80;;;8.30;82.60;;;;;;5073519;28;20217;-68
2024/02/29 00:47:54;;;;;;;52.97;29.65;;;8.30;82.80;;;;;;5073719;28;20265;-68
2024/02/29 00:50:25;;;;;;;48.95;27.38;;;8.30;83.00;;;;;;5073617;28;20182;-68
2024/02/29 00:52:52;;;;;;;49.55;28.83;;;8.20;83.00;;;;;;5073346;28;20178;-68
2024/02/29 00:55:21;;;;;;;48.20;28.83;;;8.20;83.30;;;;;;5073513;28;20196;-68
2024/02/29 00:57:51;;;;;;;42.58;27.15;;;8.20;83.30;;;;;;5073844;28;20190;-68
2024/02/29 01:00:19;;;;;;;49.65;29.30;;;8.30;83.30;;;;;;5073935;28;20243;-68
2024/02/29 01:02:51;;;;;;;52.47;28.40;;;8.30;83.30;;;;;;5073630;28;20190;-68
2024/02/29 01:05:19;;;;;;;39.65;25.67;;;8.30;83.10;;;;;;5073355;28;20179;-68
2024/02/29 01:07:46;;;;;;;41.33;26.50;;;8.40;83.00;;;;;;5073349;28;20186;-68
2024/02/29 01:10:14;;;;;;;48.92;31.40;;;8.40;82.60;;;;;;5073646;28;20209;-68
2024/02/29 01:12:43;;;;;;;46.05;26.90;;;8.30;82.80;;;;;;5073356;28;20229;-68
2024/02/29 01:15:15;;;;;;;45.72;27.67;;;8.30;82.80;;;;;;5072954;28;20196;-68
2024/02/29 01:17:43;;;;;;;46.38;27.35;;;8.20;82.40;;;;;;5073752;28;20185;-69
2024/02/29 01:20:12;;;;;;;47.63;26.70;;;8.30;82.80;;;;;;5073582;28;20186;-68
2024/02/29 01:22:40;;;;;;;45.35;31.08;;;8.30;82.40;;;;;;5090298;28;20189;-68
2024/02/29 01:25:12;;;;;;;49.63;27.33;;;8.30;82.60;;;;;;5093303;28;20198;-68
2024/02/29 01:27:39;;;;;;;53.40;31.05;;;8.30;82.80;;;;;;5093427;28;20651;-68
2024/02/29 01:30:10;;;;;;;53.17;29.35;;;8.20;82.60;;;;;;5093245;28;20223;-68
2024/02/29 01:32:39;;;;;;;45.65;28.67;;;8.20;82.90;;;;;;5084774;28;20182;-68
2024/02/29 01:35:08;;;;;;;50.13;30.02;;;8.20;83.00;;;;;;5073135;28;20251;-68
2024/02/29 01:37:36;;;;;;;47.47;27.58;;;8.20;83.00;;;;;;5073419;28;20190;-68
2024/02/29 01:40:06;;;;;;;45.10;29.50;;;8.20;83.20;;;;;;5073004;28;20190;-68
2024/02/29 01:42:34;;;;;;;46.13;28.25;;;8.20;83.20;;;;;;5072767;28;20213;-68
2024/02/29 01:45:04;;;;;;;43.08;28.15;;;8.20;83.30;;;;;;5073090;28;20592;-68
2024/02/29 01:47:33;;;;;;;43.90;27.38;;;8.20;83.40;;;;;;5072889;28;20210;-68
2024/02/29 01:50:04;;;;;;;47.13;28.80;;;8.20;83.40;;;;;;5073222;28;20190;-68
2024/02/29 01:52:35;;;;;;;48.05;27.38;;;8.20;83.40;;;;;;5073485;28;20186;-68
2024/02/29 01:55:07;;;;;;;52.88;29.20;;;8.20;83.50;;;;;;5072820;28;20337;-68
2024/02/29 01:57:37;;;;;;;48.17;30.25;;;8.20;83.40;;;;;;5072760;28;20244;-68
2024/02/29 02:00:11;;;;;;;44.13;28.40;;;8.30;83.80;;;;;;5076679;28;20178;-68
2024/02/29 02:02:41;;;;;;;44.95;28.40;;;8.20;83.40;;;;;;5076758;28;20182;-68
2024/02/29 02:05:13;;;;;;;41.75;25.90;;;8.30;84.30;;;;;;5076894;28;20277;-68
2024/02/29 02:07:46;;;;;;;47.65;28.02;;;8.30;83.20;;;;;;5076525;28;20207;-68
2024/02/29 02:10:18;;;;;;;50.20;27.08;;;8.30;83.70;;;;;;5083688;28;20216;-68
2024/02/29 02:12:51;;;;;;;50.33;26.88;;;8.20;83.70;;;;;;5096989;28;20197;-69
2024/02/29 02:15:21;;;;;;;46.97;28.02;;;8.20;83.40;;;;;;5097108;28;20535;-68
2024/02/29 02:17:52;;;;;;;48.22;28.88;;;8.20;83.80;;;;;;5097005;28;20205;-68
2024/02/29 02:20:26;;;;;;;51.42;27.27;;;8.20;83.50;;;;;;5088583;28;20182;-68
2024/02/29 02:22:58;;;;;;;43.47;26.52;;;8.20;83.50;;;;;;5076320;28;20185;-68
2024/02/29 02:25:30;;;;;;;47.22;26.98;;;8.30;83.70;;;;;;5076699;28;20231;-68
2024/02/29 02:28:00;;;;;;;49.92;29.92;;;8.20;83.50;;;;;;5076699;28;20178;-68
2024/02/29 02:30:32;;;;;;;51.47;29.58;;;8.20;83.20;;;;;;5075832;28;20217;-68
2024/02/29 02:33:04;;;;;;;53.00;29.15;;;8.30;83.30;;;;;;5075981;28;20235;-68
2024/02/29 02:35:34;;;;;;;46.28;26.05;;;8.20;83.20;;;;;;5075895;28;20178;-68
2024/02/29 02:38:24;;;;;;;45.13;27.25;;;8.20;83.50;;;;;;5076062;28;20633;-68
2024/02/29 02:40:56;;;;;;;44.58;25.58;;;8.20;83.70;;;;;;5076051;28;20179;-68
2024/02/29 02:43:27;;;;;;;48.72;29.05;;;8.20;83.70;;;;;;5075858;28;20231;-68
2024/02/29 02:45:59;;;;;;;46.65;26.98;;;8.30;83.80;;;;;;5075728;28;20729;-68
2024/02/29 02:48:26;;;;;;;40.00;26.30;;;8.30;83.70;;;;;;5075801;28;20193;-68
2024/02/29 02:50:56;;;;;;;52.28;28.70;;;8.30;83.60;;;;;;5075780;28;20280;-68
2024/02/29 02:53:30;;;;;;;49.67;29.60;;;8.30;83.80;;;;;;5076155;28;20285;-68
2024/02/29 02:56:04;;;;;;;43.85;25.85;;;8.30;83.80;;;;;;5076269;28;20571;-68
2024/02/29 02:58:32;;;;;;;44.20;25.42;;;8.20;83.20;;;;;;5076253;28;20566;-68
2024/02/29 03:01:00;;;;;;;47.75;27.17;;;8.20;83.50;;;;;;5075436;28;20720;-68
2024/02/29 03:03:31;;;;;;;44.20;26.85;;;8.20;83.50;;;;;;5075596;28;20194;-68
2024/02/29 03:06:01;;;;;;;45.75;28.27;;;8.20;83.90;;;;;;5085052;28;20174;-68
2024/02/29 03:08:29;;;;;;;45.17;26.95;;;8.20;84.10;;;;;;5096118;28;20190;-68
2024/02/29 03:10:56;;;;;;;45.78;27.30;;;8.20;84.00;;;;;;5094817;28;20523;-68
2024/02/29 03:13:26;;;;;;;41.60;26.45;;;8.20;84.10;;;;;;5095589;28;20221;-68
2024/02/29 03:15:57;;;;;;;46.08;26.58;;;8.30;84.10;;;;;;5095942;28;20189;-68
2024/02/29 03:18:26;;;;;;;50.40;28.10;;;8.30;84.00;;;;;;5095892;28;20184;-68
2024/02/29 03:20:58;;;;;;;43.55;25.25;;;8.30;84.00;;;;;;5084220;28;20186;-68
2024/02/29 03:23:27;;;;;;;53.60;27.95;;;8.20;83.80;;;;;;5075318;28;20174;-68
2024/02/29 03:25:54;;;;;;;47.00;27.48;;;8.20;83.70;;;;;;5075116;28;20190;-68
2024/02/29 03:28:27;;;;;;;44.88;27.35;;;8.20;83.70;;;;;;5075076;28;20290;-68
2024/02/29 03:30:58;;;;;;;47.50;26.52;;;8.30;84.10;;;;;;5074612;28;20528;-68
2024/02/29 03:33:26;;;;;;;43.80;26.23;;;8.30;83.90;;;;;;5075333;28;20180;-68
2024/02/29 03:35:58;;;;;;;46.10;26.83;;;8.30;83.90;;;;;;5074941;28;20240;-68
2024/02/29 03:38:27;;;;;;;40.28;25.27;;;8.30;84.10;;;;;;5075384;28;20174;-68
2024/02/29 03:40:56;;;;;;;49.97;27.10;;;8.30;84.00;;;;;;5074626;28;20659;-68
2024/02/29 03:43:27;;;;;;;46.35;29.63;;;8.30;83.90;;;;;;5074679;28;20600;-68
2024/02/29 03:45:55;;;;;;;47.05;27.80;;;8.30;83.50;;;;;;5074971;28;20175;-68
2024/02/29 03:48:24;;;;;;;46.97;26.15;;;8.30;83.20;;;;;;5074744;28;20683;-68
2024/02/29 03:50:58;;;;;;;45.78;26.77;;;8.20;83.40;;;;;;5074975;28;20190;-68
2024/02/29 03:53:32;;;;;;;41.85;26.42;;;8.20;84.20;;;;;;5075059;28;20221;-68
2024/02/29 03:56:01;;;;;;;44.40;25.75;;;8.20;83.50;;;;;;5074560;28;20189;-68
2024/02/29 03:58:43;;;;;;;42.08;25.65;;;8.20;83.50;;;;;;5074884;28;20538;-68
2024/02/29 04:01:12;;;;;;;42.20;25.75;;;8.20;83.50;;;;;;5092993;28;20598;-68
2024/02/29 04:03:40;;;;;;;42.80;26.45;;;8.10;83.60;;;;;;5095083;28;20221;-68
2024/02/29 04:06:07;;;;;;;48.20;26.50;;;8.10;83.70;;;;;;5094997;28;20239;-68
2024/02/29 04:08:36;;;;;;;44.92;28.10;;;8.10;83.80;;;;;;5083925;28;20186;-68
2024/02/29 04:11:08;;;;;;;44.75;26.17;;;8.10;83.90;;;;;;5073059;28;20243;-68
2024/02/29 04:13:36;;;;;;;46.42;28.00;;;8.10;84.10;;;;;;5074253;28;20181;-68
2024/02/29 04:16:06;;;;;;;55.75;29.33;;;8.10;84.20;;;;;;5074148;28;20190;-68
2024/02/29 04:18:35;;;;;;;48.63;28.08;;;8.10;84.70;;;;;;5074389;28;20205;-68
2024/02/29 04:21:03;;;;;;;47.90;27.73;;;8.10;84.50;;;;;;5073055;28;20184;-68
2024/02/29 04:23:31;;;;;;;47.83;28.20;;;8.10;84.30;;;;;;5074182;28;20214;-69
2024/02/29 04:26:09;;;;;;;50.15;29.25;;;8.10;84.70;;;;;;5074285;28;20198;-68
2024/02/29 04:28:51;;;;;;;48.50;27.40;;;8.10;84.70;;;;;;5074005;28;20637;-68
2024/02/29 04:31:22;;;;;;;51.95;27.45;;;8.20;84.60;;;;;;5073594;28;20185;-68
2024/02/29 04:33:51;;;;;;;42.20;28.85;;;8.10;84.50;;;;;;5074162;28;20192;-68
2024/02/29 04:36:23;;;;;;;44.70;26.25;;;8.10;84.60;;;;;;5073889;28;20190;-68
2024/02/29 04:38:56;;;;;;;46.35;26.98;;;8.10;84.60;;;;;;5073739;28;20170;-68
2024/02/29 04:41:27;;;;;;;44.38;28.02;;;8.20;84.60;;;;;;5073754;28;20178;-68
2024/02/29 04:44:00;;;;;;;47.47;27.80;;;8.10;84.30;;;;;;5073729;28;20229;-68
2024/02/29 04:46:46;;;;;;;49.53;29.00;;;8.10;84.50;;;;;;5073997;28;20174;-68
2024/02/29 04:49:14;;;;;;;47.30;28.42;;;8.10;84.60;;;;;;5073058;28;20182;-68
2024/02/29 04:51:44;;;;;;;52.53;28.02;;;8.10;84.80;;;;;;5073537;28;20190;-68
2024/02/29 04:54:17;;;;;;;52.65;29.67;;;8.10;84.70;;;;;;5073897;28;20194;-68
2024/02/29 04:56:47;;;;;;;48.28;28.52;;;8.10;84.60;;;;;;5073630;28;20178;-68
2024/02/29 04:59:15;;;;;;;44.90;26.23;;;8.20;84.70;;;;;;5073255;28;20888;-68
2024/02/29 05:01:45;;;;;;;47.42;28.33;;;8.20;84.80;;;;;;5073754;28;20225;-68
2024/02/29 05:04:14;;;;;;;50.25;28.17;;;8.20;84.60;;;;;;5073406;28;20277;-68
2024/02/29 05:06:46;;;;;;;45.50;26.58;;;8.20;84.30;;;;;;5073654;28;20221;-68
2024/02/29 05:09:15;;;;;;;50.78;28.85;;;8.10;84.50;;;;;;5073731;28;20530;-68
2024/02/29 05:11:49;;;;;;;46.50;26.58;;;8.20;84.60;;;;;;5073677;28;20186;-68
2024/02/29 05:14:21;;;;;;;52.45;30.52;;;8.20;84.50;;;;;;5073493;28;20642;-68
2024/02/29 05:16:52;;;;;;;45.25;29.17;;;8.20;84.60;;;;;;5073425;28;20186;-68
2024/02/29 05:19:19;;;;;;;45.17;25.52;;;8.20;84.50;;;;;;5073003;28;20190;-68
2024/02/29 05:21:47;;;;;;;57.10;29.88;;;8.10;84.30;;;;;;5073615;28;20190;-68
2024/02/29 05:24:16;;;;;;;48.50;28.13;;;8.10;84.20;;;;;;5073967;28;20652;-68
2024/02/29 05:26:43;;;;;;;45.35;27.63;;;8.10;84.20;;;;;;5073437;28;20206;-68
2024/02/29 05:29:12;;;;;;;51.58;27.70;;;8.10;84.60;;;;;;5073108;28;20197;-68
2024/02/29 05:31:49;;;;;;;53.88;30.35;;;8.10;84.60;;;;;;5073015;28;20236;-68
2024/02/29 05:34:17;;;;;;;49.97;28.40;;;8.10;84.70;;;;;;5075800;28;20624;-68
2024/02/29 05:36:44;;;;;;;45.80;27.40;;;8.10;84.60;;;;;;5077576;28;20210;-68
2024/02/29 05:39:18;;;;;;;47.60;27.10;;;8.10;85.00;;;;;;5077726;28;20189;-68
2024/02/29 05:41:46;;;;;;;52.88;31.42;;;8.00;84.60;;;;;;5074939;28;20170;-68
2024/02/29 05:44:15;;;;;;;42.47;26.23;;;8.00;84.80;;;;;;5076172;28;20178;-68
2024/02/29 05:46:43;;;;;;;46.95;28.67;;;8.10;85.00;;;;;;5076477;28;20205;-68
2024/02/29 05:49:10;;;;;;;50.42;30.42;;;8.10;85.00;;;;;;5076602;28;20186;-68
2024/02/29 05:51:38;;;;;;;39.20;26.15;;;8.10;84.90;;;;;;5076072;28;20194;-68
2024/02/29 05:54:06;;;;;;;48.63;27.98;;;8.10;85.10;;;;;;5076608;28;20216;-68
2024/02/29 05:56:36;;;;;;;41.78;25.98;;;8.10;85.00;;;;;;5076230;28;20656;-68
2024/02/29 05:59:03;;;;;;;48.78;27.70;;;8.10;85.00;;;;;;5073645;28;20222;-68
2024/02/29 06:01:32;;;;;;;51.63;29.92;;;8.00;84.90;;;;;;5075638;28;20193;-68
2024/02/29 06:04:00;;;;;;;45.47;27.63;;;8.00;85.20;;;;;;5075580;28;20546;-68
2024/02/29 06:06:34;;;;;;;48.95;27.77;;;8.00;85.50;;;;;;5075478;28;20193;-68
2024/02/29 06:09:03;;;;;;;46.90;26.20;;;8.00;85.40;;;;;;5075300;28;20209;-68
2024/02/29 06:11:31;;;;;;;48.30;28.20;;;8.00;85.40;;;;;;5074892;28;20197;-68
2024/02/29 06:13:59;;;;;;;50.30;28.02;;;8.00;85.60;;;;;;5073892;28;20232;-68
2024/02/29 06:16:27;;;;;;;48.92;26.92;;;8.00;85.40;;;;;;5074937;28;20635;-68
2024/02/29 06:18:56;;;;;;;48.55;28.45;;;8.10;85.20;;;;;;5074453;28;20198;-68
2024/02/29 06:21:24;;;;;;;42.80;28.48;;;8.00;85.00;;;;;;5074937;28;20190;-68
2024/02/29 06:23:53;;;;;;;43.58;26.98;;;8.00;85.30;;;;;;5075695;28;20190;-68
2024/02/29 06:26:20;;;;;;;43.85;26.42;;;8.10;85.60;;;;;;5075263;28;20186;-68
2024/02/29 06:28:48;;;;;;;46.97;27.48;;;8.10;85.60;;;;;;5075409;28;20257;-68
2024/02/29 06:31:17;;;;;;;59.67;29.30;;;8.10;85.60;;;;;;5075100;28;20201;-68
2024/02/29 06:33:44;;;;;;;49.25;28.38;;;8.10;85.60;;;;;;5075621;28;20190;-68
2024/02/29 06:36:13;;;;;;;45.08;27.58;;;8.10;85.50;;;;;;5074996;28;20190;-68
2024/02/29 06:38:43;;;;;;;42.63;28.30;;;8.10;85.60;;;;;;5075174;28;20269;-68
2024/02/29 06:41:13;;;;;;;47.90;28.65;;;8.10;85.70;;;;;;5074892;28;20217;-68
2024/02/29 06:43:40;;;;;;;51.97;29.70;;;8.10;85.60;;;;;;5073545;28;20209;-68
2024/02/29 06:46:10;;;;;;;44.05;27.80;;;8.10;85.70;;;;;;5075384;28;20198;-68
2024/02/29 06:48:37;;;;;;;48.67;30.20;;;8.10;85.70;;;;;;5074246;28;20209;-68
2024/02/29 06:51:05;;;;;;;48.67;27.98;;;8.20;86.00;;;;;;5075556;28;20284;-68
2024/02/29 06:53:33;;;;;;;49.40;28.55;;;8.20;85.90;;;;;;5074329;28;20277;-68
2024/02/29 06:56:00;;;;;;;49.63;28.95;;;8.20;85.60;;;;;;5075827;28;20285;-68
2024/02/29 06:58:28;;;;;;;49.13;28.50;;;8.20;85.50;;;;;;5075755;28;20190;-68
2024/02/29 07:00:56;;;;;;;46.88;28.30;;;8.20;85.50;;;;;;5075782;28;20316;-68
2024/02/29 07:03:23;;;;;;;50.60;29.13;;;8.20;85.50;;;;;;5075671;28;20568;-68
2024/02/29 07:05:50;;;;;;;54.33;30.45;;;8.20;85.50;;;;;;5075710;28;20272;-68
2024/02/29 07:08:17;;;;;;;53.08;29.05;;;8.30;85.60;;;;;;5075207;28;20568;-68
2024/02/29 07:10:46;;;;;;;47.80;27.70;;;8.30;85.50;;;;;;5075515;28;20653;-68
2024/02/29 07:13:13;;;;;;;50.45;29.52;;;8.30;85.40;;;;;;5075509;28;20232;-68
2024/02/29 07:15:40;;;;;;;49.60;29.02;;;8.30;85.00;;;;;;5075440;28;20189;-68
2024/02/29 07:18:08;;;;;;;50.05;28.80;;;8.30;85.00;;;;;;5075447;28;20276;-68
2024/02/29 07:20:35;;;;;;;42.03;27.50;;;8.40;85.00;;;;;;5075074;28;20662;-68
2024/02/29 07:23:02;;;;;;;53.88;31.73;;;8.40;85.00;;;;;;5075300;28;20531;-68
2024/02/29 07:25:29;;;;;;;50.20;28.27;;;8.40;84.80;;;;;;5075331;28;20194;-68
2024/02/29 07:27:58;;;;;;;49.17;27.45;;;8.40;84.70;;;;;;5075049;28;20287;-68
2024/02/29 07:30:26;;;;;;;52.30;29.40;;;8.40;84.70;;;;;;5074767;28;20293;-68
2024/02/29 07:32:54;;;;;;;47.50;28.42;;;8.40;84.50;;;;;;5075061;28;20273;-68
2024/02/29 07:35:27;;;;;;;48.13;30.33;;;8.40;84.40;;;;;;5074698;28;20652;-68
2024/02/29 07:37:54;;;;;;;58.05;32.85;;;8.40;84.20;;;;;;5075036;28;20289;-68
2024/02/29 07:40:23;;;;;;;53.40;28.77;;;8.40;84.00;;;;;;5074934;28;20197;-68
2024/02/29 07:42:50;;;;;;;49.13;28.45;;;8.40;83.90;;;;;;5074415;28;20222;-68
2024/02/29 07:45:19;;;;;;;48.05;28.65;;;8.50;84.10;;;;;;5074518;28;20229;-68
2024/02/29 07:47:46;;;;;;;47.08;27.50;;;8.50;83.90;;;;;;5074312;28;20214;-68
2024/02/29 07:50:13;;;;;;;49.47;29.63;;;8.50;83.80;;;;;;5074769;28;20221;-68
2024/02/29 07:52:40;;;;;;;56.60;29.40;;;8.50;83.50;;;;;;5074791;28;20190;-68
2024/02/29 07:55:10;;;;;;;46.60;29.42;;;8.50;83.10;;;;;;5074801;28;20245;-68
2024/02/29 07:57:37;;;;;;;50.05;29.13;;;8.50;83.00;;;;;;5073945;28;20200;-68
2024/02/29 08:00:05;;;;;;;55.40;32.88;;;8.60;82.80;;;;;;5074523;28;20570;-68
2024/02/29 08:02:33;;;;;;;48.33;27.70;;;8.60;82.70;;;;;;5074119;28;20278;-68
2024/02/29 08:05:00;;;;;;;52.92;31.30;;;8.60;82.80;;;;;;5074446;28;20194;-68
2024/02/29 08:07:27;;;;;;;47.42;29.92;;;8.60;82.90;;;;;;5074302;28;20186;-68
2024/02/29 08:09:59;;;;;;;47.30;27.30;;;8.70;83.00;;;;;;5074448;28;20225;-68
2024/02/29 08:12:27;;;;;;;45.63;26.38;;;8.70;83.00;;;;;;5074456;28;20174;-68
2024/02/29 08:14:56;;;;;;;55.97;28.20;;;8.80;83.00;;;;;;5073956;28;20190;-68
2024/02/29 08:17:26;;;;;;;55.50;30.30;;;8.80;82.80;;;;;;5074297;28;20284;-68
2024/02/29 08:19:55;;;;;;;53.33;30.65;;;8.80;82.40;;;;;;5074458;28;20194;-68
2024/02/29 08:22:22;;;;;;;47.50;27.42;;;8.80;82.30;;;;;;5074127;28;20244;-68
2024/02/29 08:24:49;;;;;;;50.00;28.42;;;8.80;82.20;;;;;;5073749;28;20226;-68
2024/02/29 08:27:16;;;;;;;53.38;27.50;;;8.80;82.00;;;;;;5074002;28;20244;-68
2024/02/29 08:29:43;;;;;;;55.50;30.42;;;8.80;81.90;;;;;;5073953;28;20299;-68
2024/02/29 08:32:10;;;;;;;49.80;27.58;;;8.90;81.90;;;;;;5073891;28;20236;-68
2024/02/29 08:34:37;;;;;;;49.85;31.17;;;9.00;82.00;;;;;;5073658;28;20277;-68
2024/02/29 08:37:06;;;;;;;47.08;25.40;;;9.00;81.30;;;;;;5074006;28;20281;-68
2024/02/29 08:39:34;;;;;;;52.85;28.63;;;9.10;81.30;;;;;;5073844;28;20201;-68
2024/02/29 08:42:01;;;;;;;49.15;29.38;;;9.10;81.30;;;;;;5073251;28;20214;-68
2024/02/29 08:44:28;;;;;;;55.15;32.75;;;9.10;80.70;;;;;;5073778;28;20222;-68
2024/02/29 08:46:59;;;;;;;51.72;30.75;;;9.10;80.30;;;;;;5073417;28;20277;-68
2024/02/29 08:49:26;;;;;;;53.05;28.58;;;9.20;80.90;;;;;;5073356;28;20213;-68
2024/02/29 08:51:53;;;;;;;53.92;29.05;;;9.20;80.20;;;;;;5073634;28;20259;-68
2024/02/29 08:54:22;;;;;;;50.70;29.45;;;9.30;80.10;;;;;;5073597;28;20198;-68
2024/02/29 08:56:49;;;;;;;51.22;28.27;;;9.30;80.20;;;;;;5073713;28;20189;-68
2024/02/29 08:59:16;;;;;;;47.60;28.65;;;9.30;80.20;;;;;;5073596;28;20225;-68
2024/02/29 09:01:43;;;;;;;49.33;30.83;;;9.30;79.70;;;;;;5073182;28;20277;-68
2024/02/29 09:04:10;;;;;;;46.50;27.73;;;9.30;79.70;;;;;;5073612;28;20230;-68
2024/02/29 09:06:37;;;;;;;47.65;28.55;;;9.40;79.60;;;;;;5073451;28;20248;-68
2024/02/29 09:09:04;;;;;;;50.92;29.10;;;9.40;79.40;;;;;;5073240;28;20210;-68
2024/02/29 09:11:32;;;;;;;55.25;29.65;;;9.40;79.40;;;;;;5073492;28;20273;-68
2024/02/29 09:13:59;;;;;;;51.30;28.58;;;9.40;79.40;;;;;;5073410;28;20637;-68
2024/02/29 09:16:26;;;;;;;52.40;28.38;;;9.50;79.70;;;;;;5073481;28;20190;-68
2024/02/29 09:18:53;;;;;;;49.22;28.27;;;9.60;80.00;;;;;;5073205;28;20193;-68
2024/02/29 09:21:20;;;;;;;47.38;27.45;;;9.70;80.10;;;;;;5073044;28;20225;-68
2024/02/29 09:23:48;;;;;;;53.15;30.13;;;9.80;79.60;;;;;;5073039;28;20229;-68
2024/02/29 09:26:18;;;;;;;45.50;25.35;;;9.80;78.70;;;;;;5073257;28;20186;-68
2024/02/29 09:28:47;;;;;;;43.03;26.23;;;9.90;78.20;;;;;;5073202;28;20221;-69
2024/02/29 09:31:15;;;;;;;53.15;26.83;;;9.90;77.70;;;;;;5073249;28;20205;-68
2024/02/29 09:33:47;;;;;;;44.60;26.88;;;10.00;75.70;;;;;;5073161;28;20580;-68
2024/02/29 09:36:15;;;;;;;40.33;27.08;;;10.00;75.40;;;;;;5073189;28;20539;-68
2024/02/29 09:38:42;;;;;;;47.28;27.15;;;10.00;75.50;;;;;;5073039;28;20242;-68
2024/02/29 09:41:12;;;;;;;45.40;26.38;;;10.10;75.80;;;;;;5073198;28;20197;-68
2024/02/29 09:43:43;;;;;;;53.25;28.15;;;10.10;76.20;;;;;;5073165;28;20253;-68
2024/02/29 09:46:12;;;;;;;42.88;25.45;;;10.20;75.60;;;;;;5073137;28;20178;-68
2024/02/29 09:48:42;;;;;;;41.22;27.42;;;10.10;74.60;;;;;;5073027;28;20253;-68
2024/02/29 09:51:14;;;;;;;44.53;26.08;;;10.20;74.50;;;;;;5073282;28;20232;-68
2024/02/29 09:53:41;;;;;;;41.92;27.85;;;10.20;74.50;;;;;;5073172;28;20629;-68
2024/02/29 09:56:11;;;;;;;44.83;27.45;;;10.20;74.50;;;;;;5073048;28;20225;-68
2024/02/29 09:58:40;;;;;;;44.38;27.33;;;10.20;74.20;;;;;;5072912;28;20229;-69
2024/02/29 10:01:09;;;;;;;44.22;26.20;;;10.20;73.60;;;;;;5072577;28;20186;-68
2024/02/29 10:03:38;;;;;;;40.55;23.90;;;10.30;73.50;;;;;;5072939;28;20216;-68
2024/02/29 10:06:06;;;;;;;39.97;23.30;;;10.30;73.20;;;;;;5072665;28;20189;-68
2024/02/29 10:08:38;;;;;;;33.90;19.92;;;10.30;73.30;;;;;;5072508;28;20218;-68
2024/02/29 10:11:05;;;;;;;36.53;21.05;;;10.30;72.90;;;;;;5072913;28;20244;-68
2024/02/29 10:13:39;;;;;;;31.95;20.63;;;10.30;72.00;;;;;;5072609;28;20239;-68
2024/02/29 10:16:11;;;;;;;42.65;25.42;;;10.30;71.90;;;;;;5072734;28;20201;-68
2024/02/29 10:18:39;;;;;;;34.92;19.75;;;10.40;71.40;;;;;;5072793;28;20273;-68
2024/02/29 10:21:10;;;;;;;33.33;18.58;;;10.40;71.20;;;;;;5076364;28;20277;-69
2024/02/29 10:23:37;;;;;;;35.60;18.30;;;10.30;70.50;;;;;;5076544;28;20644;-68
2024/02/29 10:26:04;;;;;;;28.40;17.35;;;10.30;69.00;;;;;;5076049;28;20663;-69
2024/02/29 10:28:31;;;;;;;26.67;16.85;;;10.20;68.70;;;;;;5076322;28;20300;-69
2024/02/29 10:31:00;;;;;;;28.17;16.63;;;10.20;68.10;;;;;;5076254;28;20202;-68
2024/02/29 10:33:27;;;;;;;36.03;20.90;;;10.20;67.90;;;;;;5075897;28;20190;-68
2024/02/29 10:35:55;;;;;;;25.60;16.85;;;10.10;68.40;;;;;;5076122;28;20190;-68
2024/02/29 10:38:23;;;;;;;34.63;19.30;;;10.10;68.30;;;;;;5075852;28;20664;-68
2024/02/29 10:40:52;;;;;;;28.95;17.55;;;10.10;68.90;;;;;;5076333;28;20194;-68
2024/02/29 10:43:20;;;;;;;35.25;19.52;;;10.10;69.30;;;;;;5075607;28;20253;-68
2024/02/29 10:45:51;;;;;;;35.58;18.58;;;10.10;69.80;;;;;;5075742;28;20200;-68
2024/02/29 10:48:23;;;;;;;34.13;18.88;;;10.20;69.50;;;;;;5075502;28;20197;-68
2024/02/29 10:51:06;;;;;;;30.00;17.83;;;10.10;70.00;;;;;;5075617;28;20188;-68
2024/02/29 10:53:43;;;;;;;28.08;17.45;;;10.10;70.40;;;;;;5075559;28;20217;-68
2024/02/29 10:56:21;;;;;;;31.60;19.45;;;10.10;70.20;;;;;;5075919;28;20209;-68
2024/02/29 10:58:54;;;;;;;33.70;18.60;;;10.10;70.00;;;;;;5075909;28;20186;-68
2024/02/29 11:01:21;;;;;;;30.58;18.70;;;10.00;70.20;;;;;;5075715;28;20273;-69
2024/02/29 11:03:49;;;;;;;32.13;18.20;;;10.10;70.60;;;;;;5075344;28;20660;-68
2024/02/29 11:06:18;;;;;;;31.25;17.92;;;10.10;71.20;;;;;;5075285;28;20281;-69
2024/02/29 11:08:45;;;;;;;29.25;18.45;;;10.20;70.60;;;;;;5075727;28;20633;-68
2024/02/29 11:11:14;;;;;;;34.20;19.52;;;10.30;70.60;;;;;;5075636;28;20221;-68
2024/02/29 11:13:42;;;;;;;31.80;19.70;;;10.40;70.70;;;;;;5075145;28;20186;-68
2024/02/29 11:16:11;;;;;;;30.38;18.15;;;10.50;70.50;;;;;;5075331;28;20723;-68
2024/02/29 11:18:38;;;;;;;28.17;18.23;;;10.50;70.40;;;;;;5075492;28;20549;-68
2024/02/29 11:21:06;;;;;;;31.98;19.05;;;10.70;70.20;;;;;;5075373;28;20255;-68
2024/02/29 11:23:39;;;;;;;32.53;17.70;;;10.80;70.30;;;;;;5075397;28;20617;-68
2024/02/29 11:26:10;;;;;;;26.45;15.70;;;11.00;70.50;;;;;;5074973;28;20436;-68
2024/02/29 11:28:38;;;;;;;26.27;16.30;;;11.10;69.50;;;;;;5075345;28;20179;-68
2024/02/29 11:31:18;;;;;;;28.50;15.70;;;11.20;67.90;;;;;;5074174;28;20429;-68
2024/02/29 11:33:47;;;;;;;25.33;15.53;;;11.30;66.90;;;;;;5075114;28;20213;-68
2024/02/29 11:36:17;;;;;;;25.10;15.20;;;11.40;67.00;;;;;;5074829;28;20438;-69
2024/02/29 11:38:45;;;;;;;28.97;15.30;;;11.50;66.30;;;;;;5074725;28;20443;-69
2024/02/29 11:41:16;;;;;;;22.97;15.00;;;11.60;66.50;;;;;;5075010;28;20910;-69
2024/02/29 11:43:44;;;;;;;27.03;15.70;;;11.70;66.10;;;;;;5074990;28;20563;-68
2024/02/29 11:46:11;;;;;;;23.13;15.30;;;11.80;65.40;;;;;;5074656;28;20428;-69
2024/02/29 11:48:39;;;;;;;24.37;15.23;;;12.00;65.80;;;;;;5074842;28;20447;-69
2024/02/29 11:51:07;;;;;;;27.03;15.23;;;12.10;65.40;;;;;;5074694;28;20437;-69
2024/02/29 11:53:35;;;;;;;30.23;15.47;;;12.20;64.40;;;;;;5074427;28;20436;-69
2024/02/29 11:56:04;;;;;;;21.60;17.40;;;12.40;63.30;;;;;;5074769;28;20854;-69
2024/02/29 11:58:32;;;;;;;26.97;15.83;;;12.50;62.80;;;;;;5074616;28;20528;-69
2024/02/29 12:01:00;;;;;;;23.30;14.77;;;12.60;62.90;;;;;;5074252;28;20432;-69
2024/02/29 12:03:28;;;;;;;26.80;15.77;;;12.70;62.60;;;;;;5074538;28;20435;-69
2024/02/29 12:05:56;;;;;;;24.20;15.57;;;12.90;62.20;;;;;;5074570;28;20468;-69
2024/02/29 12:08:27;;;;;;;21.77;14.70;;;13.10;63.00;;;;;;5074460;28;20432;-69
2024/02/29 12:11:04;;;;;;;26.20;17.80;;;13.80;63.50;;;;;;5075057;28;20534;-69
2024/02/29 12:13:31;;;;;;;26.27;16.53;;;14.50;59.10;;;;;;5063691;28;20433;-69
2024/02/29 12:15:59;;;;;;;27.40;15.80;;;15.20;58.30;;;;;;5061677;28;20436;-69
2024/02/29 12:18:26;;;;;;;22.20;14.80;;;16.00;58.30;;;;;;5074013;28;20635;-68
2024/02/29 12:20:53;;;;;;;22.93;13.97;;;16.80;55.70;;;;;;5073387;28;20437;-68
2024/02/29 12:23:21;;;;;;;17.20;12.03;;;17.40;53.80;;;;;;5073241;28;20522;-67
2024/02/29 12:25:48;;;;;;;21.23;13.40;;;18.00;53.10;;;;;;5073333;28;20532;-68
2024/02/29 12:28:17;;;;;;;24.03;15.77;;;18.40;50.20;;;;;;5069643;28;20914;-68
2024/02/29 12:30:48;;;;;;;18.90;12.20;;;18.80;48.40;;;;;;5072324;28;20482;-68
2024/02/29 12:33:16;;;;;;;18.80;12.87;;;19.10;48.00;;;;;;5073101;28;20474;-70
2024/02/29 12:35:43;;;;;;;24.80;15.10;;;19.60;46.30;;;;;;5073619;28;20432;-68
2024/02/29 12:38:14;;;;;;;20.50;14.90;;;19.90;42.90;;;;;;5073187;28;20463;-68
2024/02/29 12:40:41;;;;;;;19.60;13.77;;;20.10;43.00;;;;;;5073864;28;20420;-69
2024/02/29 12:43:13;;;;;;;26.07;16.00;;;20.30;41.90;;;;;;5073570;28;20464;-69